Time;durP1;ratioP1;P1;durP2;ratioP2;P2;SDS_P1;SDS_P2;PMS_P1;PMS_P2;Temp;Humidity;BMP_temperature;BMP_pressure;BME280_temperature;BME280_humidity;BME280_pressure;Samples;Min_cycle;Max_cycle;Signal;HPM_P1;HPM_P2
2021/12/16 00:03:08;;;;;;;14.67;11.80;;;;;;;6.76;87.53;97168.81;4934998;29;20232;-82
2021/12/16 00:05:55;;;;;;;13.63;11.33;;;;;;;6.78;87.19;97172.09;4948457;28;20201;-82
2021/12/16 00:08:31;;;;;;;13.17;11.07;;;;;;;6.78;87.76;97165.22;4954447;28;20240;-82
2021/12/16 00:11:05;;;;;;;14.40;12.63;;;;;;;6.77;87.37;97155.09;4953550;29;20200;-82
2021/12/16 00:30:26;;;;;;;15.93;13.07;;;;;;;6.15;91.69;97151.13;4912976;29;20237;-82
2021/12/16 00:33:11;;;;;;;15.70;12.50;;;;;;;6.32;90.83;97143.97;4939375;28;20193;-82
2021/12/16 00:35:39;;;;;;;14.40;11.93;;;;;;;6.38;90.33;97139.19;4964896;28;20220;-82
2021/12/16 00:38:06;;;;;;;13.90;12.17;;;;;;;6.47;89.87;97140.28;4947039;29;20256;-82
2021/12/16 00:40:32;;;;;;;14.60;12.30;;;;;;;6.53;89.20;97148.31;4940755;29;20264;-82
2021/12/16 00:43:10;;;;;;;13.97;12.03;;;;;;;6.58;88.64;97142.84;4959181;29;20652;-83
2021/12/16 00:45:43;;;;;;;16.53;12.80;;;;;;;6.64;88.59;97146.69;4967492;28;20271;-82
2021/12/16 00:48:23;;;;;;;16.23;12.20;;;;;;;6.66;88.60;97149.97;4959590;29;20240;-82
2021/12/16 00:56:42;;;;;;;16.87;12.93;;;;;;;6.49;88.81;97148.66;4898013;29;20237;-82
2021/12/16 00:59:11;;;;;;;15.50;12.70;;;;;;;6.52;89.18;97145.88;4943988;28;20241;-82
2021/12/16 01:01:44;;;;;;;15.03;12.83;;;;;;;6.56;88.95;97147.25;4958392;28;20211;-82
2021/12/16 01:04:48;;;;;;;15.33;12.73;;;;;;;6.62;88.33;97146.81;4958047;28;20205;-82
2021/12/16 01:35:02;;;;;;;14.07;12.37;;;;;;;6.63;87.62;97156.13;4956589;29;20243;-82
2021/12/16 01:40:37;;;;;;;16.10;12.90;;;;;;;6.61;87.97;97165.66;4955898;29;20301;-82
2021/12/16 01:46:06;;;;;;;15.77;11.83;;;;;;;6.65;87.48;97173.94;4948826;28;20239;-81
2021/12/16 01:51:34;;;;;;;15.80;12.00;;;;;;;6.65;87.76;97169.63;4901887;29;20224;-82
2021/12/16 01:56:56;;;;;;;16.63;13.77;;;;;;;6.62;88.53;97164.72;4972490;28;20603;-82
2021/12/16 01:59:32;;;;;;;19.00;14.53;;;;;;;6.58;88.58;97150.53;4955135;28;20225;-82
2021/12/16 02:02:10;;;;;;;18.70;15.40;;;;;;;6.53;88.86;97144.94;4955598;28;20234;-82
2021/12/16 02:04:43;;;;;;;18.30;15.30;;;;;;;6.44;88.84;97143.88;4955264;29;20216;-82
2021/12/16 02:07:27;;;;;;;18.67;14.63;;;;;;;6.38;89.40;97140.94;4954908;28;20236;-82
2021/12/16 02:10:01;;;;;;;18.40;15.30;;;;;;;6.22;90.22;97151.47;4955881;29;20252;-82
2021/12/16 02:12:48;;;;;;;17.77;14.70;;;;;;;6.30;90.29;97144.06;4955178;29;20197;-82
2021/12/16 02:29:13;;;;;;;19.03;15.43;;;;;;;6.57;89.38;97161.69;4955850;28;20223;-82
2021/12/16 02:31:52;;;;;;;19.53;16.10;;;;;;;6.59;88.82;97163.19;4965880;28;20228;-82
2021/12/16 02:34:27;;;;;;;17.13;14.73;;;;;;;6.63;88.84;97157.88;4955073;29;20223;-82
2021/12/16 02:36:55;;;;;;;20.90;16.53;;;;;;;6.63;88.87;97165.53;4954364;28;20291;-82
2021/12/16 02:39:24;;;;;;;19.17;16.00;;;;;;;6.63;88.62;97155.31;4954355;29;20251;-82
2021/12/16 02:41:54;;;;;;;21.23;16.00;;;;;;;6.65;88.61;97154.28;4954289;28;20224;-81
2021/12/16 02:44:29;;;;;;;20.80;16.20;;;;;;;6.55;88.89;97153.31;4953782;28;20201;-82
2021/12/16 02:49:46;;;;;;;21.97;16.70;;;;;;;6.56;89.05;97154.94;4962935;28;20769;-82
2021/12/16 02:52:17;;;;;;;19.63;15.97;;;;;;;6.57;88.67;97151.44;4961072;28;20197;-82
2021/12/16 02:54:44;;;;;;;22.23;17.03;;;;;;;6.61;88.54;97150.31;4956656;28;20243;-82
2021/12/16 02:57:11;;;;;;;21.20;17.13;;;;;;;6.57;88.87;97147.16;4965489;28;20602;-82
2021/12/16 02:59:37;;;;;;;20.67;16.97;;;;;;;6.57;88.93;97146.31;4955462;28;20221;-82
2021/12/16 03:02:09;;;;;;;18.83;16.47;;;;;;;6.59;88.81;97149.59;4955338;28;20216;-82
2021/12/16 03:04:37;;;;;;;18.90;16.77;;;;;;;6.59;88.25;97152.16;4935691;29;20217;-82
2021/12/16 03:07:05;;;;;;;20.40;16.27;;;;;;;6.54;88.69;97157.59;4956835;28;20232;-82
2021/12/16 03:15:17;;;;;;;19.30;16.90;;;;;;;6.54;88.46;97170.41;4945848;28;20683;-82
2021/12/16 03:17:52;;;;;;;20.53;17.33;;;;;;;6.53;88.61;97166.25;4961373;28;21028;-82
2021/12/16 03:20:29;;;;;;;22.10;17.60;;;;;;;6.53;88.58;97167.97;4974083;28;20227;-82
2021/12/16 03:23:08;;;;;;;21.23;17.50;;;;;;;6.52;88.15;97174.03;4956315;29;20707;-82
2021/12/16 03:25:49;;;;;;;20.17;17.40;;;;;;;6.50;88.49;97171.56;4964700;28;20204;-82
2021/12/16 03:28:52;;;;;;;21.47;17.13;;;;;;;6.43;88.07;97177.25;4956413;28;20204;-81
2021/12/16 03:31:36;;;;;;;19.83;17.50;;;;;;;6.38;88.64;97175.00;4971817;28;20211;-82
2021/12/16 03:34:25;;;;;;;20.80;16.67;;;;;;;6.30;89.37;97179.88;4955698;29;20856;-82
2021/12/16 03:37:14;;;;;;;23.40;18.73;;;;;;;6.22;90.06;97175.31;4955009;28;20236;-82
2021/12/16 03:39:43;;;;;;;23.70;19.50;;;;;;;6.12;90.26;97184.56;4955039;29;20225;-82
2021/12/16 03:42:12;;;;;;;27.93;20.50;;;;;;;6.11;90.66;97177.81;4955460;29;20571;-82
2021/12/16 03:44:52;;;;;;;23.97;19.97;;;;;;;6.13;90.84;97185.38;4966054;28;20200;-82
2021/12/16 03:47:21;;;;;;;23.93;19.57;;;;;;;6.16;91.06;97190.25;4974310;28;20231;-82
2021/12/16 03:49:49;;;;;;;26.07;20.00;;;;;;;6.16;90.43;97191.06;4962269;28;20255;-82
2021/12/16 03:52:15;;;;;;;24.50;18.77;;;;;;;6.10;90.79;97194.09;4954572;29;20200;-82
2021/12/16 03:54:49;;;;;;;23.53;18.63;;;;;;;6.17;90.38;97197.00;4955092;28;20233;-82
2021/12/16 03:57:20;;;;;;;21.80;17.77;;;;;;;6.03;91.11;97187.78;4970478;28;20240;-82
2021/12/16 03:59:48;;;;;;;21.33;17.47;;;;;;;6.12;90.14;97192.25;4954577;29;20229;-82
2021/12/16 04:02:20;;;;;;;21.77;17.47;;;;;;;6.16;90.26;97203.88;4954978;28;20640;-82
2021/12/16 04:04:51;;;;;;;21.60;16.80;;;;;;;6.21;89.94;97206.09;4953645;29;20259;-82
2021/12/16 04:07:19;;;;;;;20.30;16.83;;;;;;;6.20;89.54;97207.03;4953549;28;20279;-81
2021/12/16 04:09:46;;;;;;;20.33;17.23;;;;;;;6.27;89.22;97209.97;4953762;29;20228;-82
2021/12/16 04:12:18;;;;;;;19.00;15.70;;;;;;;6.23;89.60;97212.75;4956736;28;20201;-82
2021/12/16 04:14:48;;;;;;;19.03;15.87;;;;;;;6.29;89.19;97221.72;4956795;28;20197;-82
2021/12/16 04:17:15;;;;;;;18.77;15.07;;;;;;;6.27;88.90;97213.34;4957593;28;20783;-82
2021/12/16 04:19:41;;;;;;;17.03;14.93;;;;;;;6.31;88.53;97216.50;4956752;28;20224;-82
2021/12/16 04:22:16;;;;;;;19.43;15.40;;;;;;;6.32;88.24;97220.69;4958245;29;20627;-82
2021/12/16 04:24:44;;;;;;;18.43;14.43;;;;;;;6.28;88.59;97227.78;4961084;28;20248;-82
2021/12/16 04:27:11;;;;;;;17.57;14.10;;;;;;;6.29;88.38;97228.59;4957797;28;20244;-82
2021/12/16 04:29:38;;;;;;;16.47;13.30;;;;;;;6.29;88.27;97221.72;4962825;28;20279;-82
2021/12/16 04:32:07;;;;;;;17.50;13.50;;;;;;;6.28;87.88;97219.28;4970388;28;20242;-82
2021/12/16 04:34:33;;;;;;;15.30;12.73;;;;;;;6.30;88.24;97228.47;4957275;29;20545;-82
2021/12/16 04:37:00;;;;;;;15.30;12.53;;;;;;;6.30;87.43;97220.81;4956577;28;20243;-82
2021/12/16 04:39:29;;;;;;;14.57;12.43;;;;;;;6.32;87.18;97231.75;4957070;29;20225;-82
2021/12/16 04:41:56;;;;;;;14.20;11.70;;;;;;;6.33;87.56;97224.88;4957010;28;20201;-82
2021/12/16 04:44:25;;;;;;;14.77;11.87;;;;;;;6.24;87.17;97227.16;4956523;28;20282;-82
2021/12/16 04:46:52;;;;;;;13.87;11.43;;;;;;;6.20;87.35;97235.97;4951144;28;20229;-82
2021/12/16 04:49:20;;;;;;;13.70;10.77;;;;;;;6.15;87.51;97237.25;4950164;28;20309;-82
2021/12/16 04:51:49;;;;;;;12.63;10.57;;;;;;;6.17;87.58;97230.25;4956455;29;20204;-82
2021/12/16 04:54:18;;;;;;;10.50;9.30;;;;;;;6.19;87.47;97247.13;4957163;29;20201;-82
2021/12/16 04:56:46;;;;;;;11.77;9.90;;;;;;;6.24;87.34;97249.38;4966932;28;20312;-83
2021/12/16 04:59:16;;;;;;;11.47;9.57;;;;;;;6.27;87.14;97245.78;4956683;29;20229;-81
2021/12/16 05:01:46;;;;;;;10.53;9.33;;;;;;;6.27;86.93;97246.59;4957117;28;20205;-81
2021/12/16 05:04:13;;;;;;;11.57;9.10;;;;;;;6.23;87.20;97256.22;4944695;29;20255;-81
2021/12/16 05:06:41;;;;;;;10.03;8.53;;;;;;;6.23;87.01;97247.72;4956164;28;20240;-81
2021/12/16 05:09:11;;;;;;;10.73;9.00;;;;;;;6.19;86.72;97257.34;4955824;28;20228;-81
2021/12/16 05:11:37;;;;;;;11.07;8.83;;;;;;;6.24;87.08;97259.59;4956127;28;20292;-81
2021/12/16 05:14:06;;;;;;;9.40;8.23;;;;;;;6.16;86.30;97257.56;4956040;28;20337;-81
2021/12/16 05:16:33;;;;;;;10.40;8.87;;;;;;;6.13;86.93;97264.66;4956210;28;20381;-81
2021/12/16 05:19:00;;;;;;;9.97;8.17;;;;;;;5.91;87.91;97261.97;4955591;29;20224;-81
2021/12/16 05:21:46;;;;;;;9.93;8.90;;;;;;;5.99;88.42;97268.16;4956376;28;20205;-81
2021/12/16 05:24:17;;;;;;;9.93;8.43;;;;;;;6.04;87.67;97267.84;4955914;28;20720;-81
2021/12/16 05:26:43;;;;;;;10.50;8.00;;;;;;;6.05;87.28;97269.47;4956185;28;20239;-81
2021/12/16 05:29:10;;;;;;;8.97;7.73;;;;;;;6.05;86.99;97275.41;4957857;28;20225;-81
2021/12/16 05:31:37;;;;;;;8.63;7.47;;;;;;;6.03;87.28;97269.59;4966621;28;20216;-81
2021/12/16 05:34:06;;;;;;;8.00;6.67;;;;;;;6.11;86.76;97269.06;4955982;29;20259;-81
2021/12/16 05:36:32;;;;;;;7.63;6.83;;;;;;;6.13;86.58;97274.91;4955325;28;20244;-81
2021/12/16 05:39:00;;;;;;;7.73;6.50;;;;;;;6.13;86.19;97280.81;4961518;28;20212;-81
2021/12/16 05:41:28;;;;;;;8.10;6.50;;;;;;;6.14;85.68;97279.09;4966965;28;20208;-81
2021/12/16 05:43:54;;;;;;;8.60;6.20;;;;;;;6.16;86.04;97292.56;4963135;28;20228;-81
2021/12/16 05:46:24;;;;;;;8.23;7.33;;;;;;;6.19;85.86;97284.69;4957965;28;20247;-81
2021/12/16 05:48:54;;;;;;;8.07;6.90;;;;;;;6.16;85.92;97290.81;4957475;28;20228;-81
2021/12/16 05:51:23;;;;;;;8.57;7.20;;;;;;;6.10;86.38;97282.78;4958097;28;20209;-81
2021/12/16 05:53:51;;;;;;;8.40;7.23;;;;;;;6.11;86.25;97289.53;4962993;28;20222;-81
2021/12/16 05:56:18;;;;;;;9.13;7.70;;;;;;;6.12;86.75;97299.66;4953784;28;20823;-81
2021/12/16 05:58:46;;;;;;;8.63;7.60;;;;;;;6.02;86.48;97298.63;4955194;28;20227;-82
2021/12/16 06:01:19;;;;;;;9.23;7.67;;;;;;;5.89;87.64;97298.69;4954600;28;20201;-81
2021/12/16 06:03:47;;;;;;;9.53;7.97;;;;;;;5.85;88.41;97302.31;4955054;28;20220;-81
2021/12/16 06:06:15;;;;;;;9.77;7.37;;;;;;;5.83;88.31;97301.63;4955586;28;20247;-81
2021/12/16 06:08:41;;;;;;;10.10;7.80;;;;;;;5.91;88.32;97310.53;4956313;28;20291;-82
2021/12/16 06:11:23;;;;;;;9.23;7.43;;;;;;;5.99;87.64;97308.25;4956222;28;20201;-82
2021/12/16 06:14:02;;;;;;;9.20;7.73;;;;;;;6.03;87.20;97313.06;4956155;28;20280;-81
2021/12/16 06:27:31;;;;;;;9.90;8.47;;;;;;;6.01;88.00;97322.56;4954223;28;20766;-81
2021/12/16 06:29:59;;;;;;;11.63;8.83;;;;;;;5.92;95.69;97341.13;4961030;28;20784;-81
2021/12/16 06:32:26;;;;;;;58.33;42.63;;;;;;;5.97;89.01;97335.66;4955244;28;20626;-81
2021/12/16 06:34:53;;;;;;;42.77;32.43;;;;;;;6.01;88.18;97337.09;4954918;28;20248;-81
2021/12/16 06:37:19;;;;;;;15.47;12.40;;;;;;;6.05;87.16;97329.13;4955083;28;20244;-81
2021/12/16 06:39:46;;;;;;;14.70;11.07;;;;;;;6.07;86.88;97334.94;4946396;28;20219;-81
2021/12/16 06:42:13;;;;;;;14.40;10.53;;;;;;;6.04;87.27;97332.59;4973568;28;20691;-81
2021/12/16 06:44:44;;;;;;;12.07;9.17;;;;;;;6.03;86.83;97330.13;4953559;28;20790;-81
2021/12/16 06:47:18;;;;;;;11.70;9.70;;;;;;;6.02;86.67;97328.50;4935485;28;20316;-81
2021/12/16 06:49:47;;;;;;;14.30;10.13;;;;;;;5.97;86.81;97333.09;4958870;28;20254;-81
2021/12/16 06:52:17;;;;;;;10.93;9.30;;;;;;;5.91;86.87;97336.91;4963064;28;20225;-81
2021/12/16 06:54:57;;;;;;;11.60;9.57;;;;;;;5.93;87.15;97339.38;4954262;28;20205;-81
2021/12/16 06:57:34;;;;;;;13.80;10.17;;;;;;;5.94;87.21;97333.34;4955883;28;20264;-81
2021/12/16 07:00:08;;;;;;;13.93;10.60;;;;;;;5.88;86.62;97337.94;4953548;28;20225;-81
2021/12/16 07:02:50;;;;;;;12.07;9.73;;;;;;;5.80;87.93;97347.81;4954593;28;20202;-82
2021/12/16 07:05:19;;;;;;;15.00;10.53;;;;;;;5.72;87.19;97339.88;4954390;28;20221;-81
2021/12/16 07:07:47;;;;;;;13.40;10.37;;;;;;;5.58;87.96;97341.72;4954013;28;20237;-81
2021/12/16 07:10:15;;;;;;;12.43;9.67;;;;;;;5.45;87.74;97349.38;4962650;28;20270;-82
2021/12/16 07:12:47;;;;;;;12.03;9.80;;;;;;;5.48;88.39;97342.31;4965336;28;20701;-82
2021/12/16 07:15:17;;;;;;;11.67;9.70;;;;;;;5.58;88.16;97346.84;4953257;28;20197;-82
2021/12/16 07:17:46;;;;;;;12.70;9.03;;;;;;;5.52;86.67;97341.19;4953768;28;20255;-82
2021/12/16 07:20:17;;;;;;;11.60;9.20;;;;;;;5.59;86.81;97345.88;4953653;28;20221;-81
2021/12/16 07:22:43;;;;;;;12.80;9.70;;;;;;;5.61;86.35;97347.41;4952900;28;20189;-81
2021/12/16 07:25:10;;;;;;;11.30;9.10;;;;;;;5.66;86.21;97334.34;4961902;28;20220;-81
2021/12/16 07:27:37;;;;;;;12.77;9.33;;;;;;;5.77;87.57;97344.69;4955923;28;20224;-82
2021/12/16 07:30:06;;;;;;;12.23;9.03;;;;;;;5.84;87.46;97346.69;4964612;28;20224;-82
2021/12/16 07:32:32;;;;;;;9.47;8.07;;;;;;;5.91;85.16;97349.69;4954963;28;20217;-82
2021/12/16 07:35:00;;;;;;;10.53;8.50;;;;;;;5.83;85.60;97350.19;4953968;28;20205;-81
2021/12/16 07:37:26;;;;;;;10.17;8.03;;;;;;;5.93;85.40;97354.72;4953457;28;20907;-81
2021/12/16 07:39:53;;;;;;;9.53;7.53;;;;;;;6.02;84.78;97360.00;4956737;28;20260;-81
2021/12/16 07:42:26;;;;;;;10.03;8.33;;;;;;;6.09;84.59;97358.66;4974084;28;20204;-81
2021/12/16 07:44:53;;;;;;;10.10;7.93;;;;;;;6.12;84.73;97352.53;4959793;28;20609;-82
2021/12/16 07:47:19;;;;;;;9.53;8.53;;;;;;;6.16;84.61;97353.94;4956002;28;20224;-81
2021/12/16 07:49:46;;;;;;;11.70;8.97;;;;;;;6.21;84.41;97359.56;4966324;28;20356;-81
2021/12/16 07:52:16;;;;;;;11.00;9.00;;;;;;;6.24;84.75;97359.34;4977666;28;20717;-81
2021/12/16 07:54:43;;;;;;;13.63;9.53;;;;;;;6.22;84.15;97356.91;4966198;28;20228;-81
2021/12/16 07:57:10;;;;;;;10.50;8.90;;;;;;;6.29;84.05;97351.38;4959526;28;20243;-82
2021/12/16 07:59:37;;;;;;;10.40;8.93;;;;;;;6.32;83.98;97353.72;4957525;29;20228;-81
2021/12/16 08:02:07;;;;;;;11.87;9.20;;;;;;;6.33;84.20;97352.78;4957715;28;20205;-81
2021/12/16 08:04:40;;;;;;;12.43;9.23;;;;;;;6.35;84.48;97361.97;4957605;29;20311;-81
2021/12/16 08:07:08;;;;;;;9.73;8.43;;;;;;;6.39;83.70;97367.69;4955187;28;20315;-81
2021/12/16 08:09:40;;;;;;;11.00;8.63;;;;;;;6.43;83.06;97376.81;4990691;28;20223;-81
2021/12/16 08:12:09;;;;;;;9.73;8.33;;;;;;;6.47;82.53;97378.22;4985497;28;20208;-82
2021/12/16 08:14:35;;;;;;;10.00;7.70;;;;;;;6.44;82.28;97383.56;4979422;28;20242;-82
2021/12/16 08:17:02;;;;;;;8.63;7.07;;;;;;;6.48;82.32;97390.09;4979258;28;20231;-82
2021/12/16 08:19:29;;;;;;;9.60;8.57;;;;;;;6.48;82.95;97388.34;4977395;28;20239;-82
2021/12/16 08:21:56;;;;;;;9.80;7.97;;;;;;;6.47;83.10;97383.34;4959347;28;20205;-81
2021/12/16 08:24:22;;;;;;;10.57;8.57;;;;;;;6.50;83.55;97386.50;4959677;28;20752;-81
2021/12/16 08:26:53;;;;;;;11.13;8.77;;;;;;;6.51;84.14;97387.34;4977929;28;20583;-81
2021/12/16 08:29:20;;;;;;;11.03;8.97;;;;;;;6.54;83.84;97387.91;4959356;28;20858;-81
2021/12/16 08:31:47;;;;;;;10.07;8.47;;;;;;;6.58;82.77;97388.53;4959029;28;20212;-81
2021/12/16 08:34:16;;;;;;;9.27;8.17;;;;;;;6.59;82.41;97388.41;4958665;28;20196;-81
2021/12/16 08:36:45;;;;;;;9.70;7.73;;;;;;;6.65;81.76;97388.91;4957196;28;20235;-81
2021/12/16 08:39:12;;;;;;;9.57;7.87;;;;;;;6.66;81.53;97386.25;4958868;28;20228;-84
2021/12/16 08:41:43;;;;;;;10.97;7.47;;;;;;;6.70;81.70;97391.97;4959055;29;20205;-84
2021/12/16 08:44:11;;;;;;;9.43;8.00;;;;;;;6.75;81.53;97395.00;4957933;28;20747;-81
2021/12/16 08:46:41;;;;;;;9.63;7.90;;;;;;;6.80;81.51;97395.50;4958168;28;20278;-81
2021/12/16 08:49:09;;;;;;;9.63;7.37;;;;;;;6.76;80.88;97397.47;4960758;28;20252;-81
2021/12/16 08:51:41;;;;;;;8.80;7.10;;;;;;;6.66;80.00;97404.16;4953283;28;20675;-82
2021/12/16 08:54:08;;;;;;;9.00;7.23;;;;;;;6.65;80.99;97404.28;4955313;28;20263;-82
2021/12/16 08:56:34;;;;;;;10.00;8.20;;;;;;;6.57;79.49;97392.81;4947633;28;20232;-81
2021/12/16 08:59:04;;;;;;;10.17;8.00;;;;;;;6.67;80.28;97395.56;4956347;28;20254;-82
2021/12/16 09:01:35;;;;;;;9.47;7.93;;;;;;;6.93;79.76;97389.41;4956535;28;20205;-81
2021/12/16 09:04:01;;;;;;;9.17;7.73;;;;;;;7.07;78.67;97391.00;4956349;29;20282;-82
2021/12/16 09:06:28;;;;;;;7.67;6.80;;;;;;;7.13;78.26;97398.22;4956217;28;20238;-81
2021/12/16 09:08:56;;;;;;;9.57;7.87;;;;;;;7.07;77.75;97398.69;4959542;28;20243;-82
2021/12/16 09:11:25;;;;;;;7.97;6.90;;;;;;;7.12;78.71;97411.16;4958981;28;20201;-82
2021/12/16 09:13:56;;;;;;;8.87;7.37;;;;;;;7.13;78.80;97410.22;4968553;28;20235;-82
2021/12/16 09:16:25;;;;;;;7.97;6.90;;;;;;;7.12;78.42;97418.84;4955153;28;20287;-82
2021/12/16 09:18:55;;;;;;;7.83;6.77;;;;;;;7.11;79.38;97419.78;4956415;28;20220;-82
2021/12/16 09:21:26;;;;;;;8.93;6.80;;;;;;;6.99;79.35;97420.63;4956706;28;20232;-81
2021/12/16 09:23:53;;;;;;;8.40;6.63;;;;;;;6.88;79.43;97424.78;4956156;28;20208;-81
2021/12/16 09:26:21;;;;;;;7.10;6.30;;;;;;;6.91;80.35;97428.88;4959272;28;20577;-81
2021/12/16 09:28:48;;;;;;;10.70;7.10;;;;;;;6.96;79.93;97433.66;4954287;28;20229;-81
2021/12/16 09:31:17;;;;;;;7.10;6.27;;;;;;;7.00;79.88;97429.94;4956669;28;20259;-82
2021/12/16 09:33:48;;;;;;;7.40;6.43;;;;;;;7.00;79.49;97440.19;4955511;28;20205;-81
2021/12/16 09:36:19;;;;;;;6.60;5.57;;;;;;;7.02;79.65;97433.22;4955544;28;20255;-82
2021/12/16 09:38:46;;;;;;;7.23;6.07;;;;;;;6.98;80.08;97440.31;4956616;28;20306;-82
2021/12/16 09:41:13;;;;;;;26.37;19.47;;;;;;;6.93;80.22;97438.06;4956757;29;20209;-82
2021/12/16 09:43:43;;;;;;;16.33;13.50;;;;;;;6.89;80.17;97440.97;4960147;28;20257;-82
2021/12/16 09:46:12;;;;;;;7.57;6.47;;;;;;;6.82;79.97;97432.88;4963625;28;20263;-81
2021/12/16 09:48:39;;;;;;;7.17;5.60;;;;;;;6.81;79.96;97435.56;4966295;28;20228;-82
2021/12/16 09:51:09;;;;;;;5.87;5.03;;;;;;;6.85;80.41;97440.34;4956859;28;20268;-82
2021/12/16 09:53:39;;;;;;;6.97;5.30;;;;;;;6.82;79.67;97432.06;4955301;29;20751;-82
2021/12/16 09:56:09;;;;;;;5.50;4.80;;;;;;;6.76;79.16;97432.50;4955733;28;20236;-81
2021/12/16 09:58:40;;;;;;;5.47;4.70;;;;;;;6.74;80.04;97431.78;4937286;29;20221;-82
2021/12/16 10:01:09;;;;;;;5.20;4.70;;;;;;;6.76;80.50;97433.31;4937406;29;20263;-82
2021/12/16 10:03:38;;;;;;;11.00;9.30;;;;;;;6.80;80.66;97432.19;4936269;29;20256;-82
2021/12/16 10:06:05;;;;;;;14.93;11.67;;;;;;;6.83;81.29;97429.41;4943153;28;20239;-82
2021/12/16 10:08:31;;;;;;;6.87;5.90;;;;;;;6.87;81.01;97430.81;4955969;28;20212;-82
2021/12/16 10:10:59;;;;;;;6.07;5.43;;;;;;;6.92;81.03;97431.34;4957058;28;20208;-82
2021/12/16 10:13:37;;;;;;;5.47;4.97;;;;;;;6.93;80.80;97432.13;4955311;28;20216;-82
2021/12/16 10:18:50;;;;;;;5.97;5.23;;;;;;;6.94;81.35;97429.44;4956115;28;20258;-82
2021/12/16 10:21:22;;;;;;;5.83;4.70;;;;;;;6.97;81.05;97430.97;4955845;28;20208;-81
2021/12/16 10:23:49;;;;;;;6.27;5.40;;;;;;;6.98;81.22;97432.63;4955198;28;20204;-82
2021/12/16 10:26:19;;;;;;;5.83;5.23;;;;;;;7.02;82.01;97434.03;4955231;28;20649;-81
2021/12/16 10:28:48;;;;;;;5.10;4.60;;;;;;;7.09;81.75;97421.63;4956472;28;20224;-82
2021/12/16 10:31:20;;;;;;;5.60;4.90;;;;;;;7.15;81.67;97419.41;4956556;28;20812;-82
2021/12/16 10:33:50;;;;;;;6.93;6.00;;;;;;;7.12;83.34;97419.63;4954740;29;20196;-82
2021/12/16 10:36:21;;;;;;;8.60;7.13;;;;;;;7.13;84.31;97416.16;4961689;28;20391;-82
2021/12/16 10:38:51;;;;;;;7.70;6.70;;;;;;;7.21;83.01;97407.94;4944045;28;20230;-82
2021/12/16 10:41:23;;;;;;;8.00;6.77;;;;;;;7.22;82.79;97415.50;4956446;28;20209;-82
2021/12/16 10:43:53;;;;;;;7.27;6.57;;;;;;;7.31;82.93;97410.66;4955677;29;20200;-82
2021/12/16 10:46:23;;;;;;;9.60;7.30;;;;;;;7.28;82.78;97420.19;4958721;28;20240;-82
2021/12/16 10:48:51;;;;;;;9.93;8.23;;;;;;;7.37;81.92;97407.63;4960266;28;20225;-82
2021/12/16 10:51:22;;;;;;;10.23;7.40;;;;;;;7.41;81.92;97404.75;4947020;29;20201;-82
2021/12/16 10:54:14;;;;;;;7.97;6.90;;;;;;;7.33;82.82;97399.34;4956901;29;20255;-82
2021/12/16 10:56:52;;;;;;;6.60;6.00;;;;;;;7.30;82.15;97393.66;4954962;28;20233;-81
2021/12/16 10:59:21;;;;;;;6.00;5.40;;;;;;;7.32;81.09;97394.31;4954226;29;20616;-82
2021/12/16 11:01:55;;;;;;;7.53;6.50;;;;;;;7.40;81.13;97392.03;4951592;28;20221;-82
2021/12/16 11:04:27;;;;;;;6.60;5.77;;;;;;;7.47;80.49;97391.47;4957018;28;20588;-81
2021/12/16 11:06:57;;;;;;;6.67;5.27;;;;;;;7.58;80.46;97404.31;4956451;28;20663;-82
2021/12/16 11:09:39;;;;;;;7.27;5.90;;;;;;;7.59;80.27;97410.25;4952797;28;20224;-82
2021/12/16 11:12:18;;;;;;;6.97;5.57;;;;;;;7.55;80.24;97401.97;4953512;29;20778;-82
2021/12/16 11:14:47;;;;;;;6.23;5.63;;;;;;;7.40;80.33;97408.22;4954497;28;20252;-82
2021/12/16 11:17:16;;;;;;;6.73;5.43;;;;;;;7.35;81.18;97402.63;4956315;28;20252;-82
2021/12/16 11:19:50;;;;;;;9.20;6.17;;;;;;;7.35;81.66;97399.22;4955136;28;20217;-82
2021/12/16 11:22:20;;;;;;;6.17;5.57;;;;;;;7.41;81.81;97398.78;4953572;28;20211;-82
2021/12/16 11:24:46;;;;;;;6.10;5.50;;;;;;;7.49;80.73;97387.06;4967462;28;20292;-82
2021/12/16 11:27:31;;;;;;;6.27;5.67;;;;;;;7.55;80.12;97396.03;4954599;28;20232;-83
2021/12/16 11:30:00;;;;;;;6.80;5.50;;;;;;;7.57;79.21;97399.31;4958308;28;20220;-82
2021/12/16 11:32:40;;;;;;;5.37;4.87;;;;;;;7.55;77.97;97399.41;4954413;28;20209;-82
2021/12/16 11:35:30;;;;;;;5.40;4.90;;;;;;;7.61;77.73;97395.59;4953887;28;20204;-83
2021/12/16 11:37:59;;;;;;;5.37;4.87;;;;;;;7.60;78.87;97399.06;4952567;28;20229;-83
2021/12/16 11:40:26;;;;;;;5.37;4.87;;;;;;;7.61;79.07;97396.41;4954925;28;20653;-82
2021/12/16 11:43:03;;;;;;;5.30;4.80;;;;;;;7.71;79.08;97393.13;4954293;28;20295;-82
2021/12/16 11:45:35;;;;;;;5.70;4.43;;;;;;;7.78;78.70;97390.03;4953566;28;20244;-82
2021/12/16 11:48:03;;;;;;;11.53;9.80;;;;;;;7.79;78.53;97401.09;4955338;28;20208;-82
2021/12/16 11:50:35;;;;;;;17.30;15.47;;;;;;;7.82;78.13;97403.44;4968501;28;20793;-82
2021/12/16 11:53:02;;;;;;;8.37;7.00;;;;;;;7.84;78.21;97391.31;4954291;29;20200;-82
2021/12/16 11:55:28;;;;;;;4.87;4.40;;;;;;;7.84;76.61;97399.00;4955795;28;20791;-82
2021/12/16 11:58:01;;;;;;;4.53;4.13;;;;;;;7.75;76.46;97397.94;4955209;28;20201;-83
2021/12/16 12:00:31;;;;;;;4.67;4.20;;;;;;;7.63;76.99;97402.25;4954786;28;20272;-82
2021/12/16 12:03:00;;;;;;;5.30;4.20;;;;;;;7.53;77.29;97392.75;4953492;28;20227;-82
2021/12/16 12:05:29;;;;;;;4.40;4.00;;;;;;;7.54;77.85;97395.22;4952728;28;20889;-82
2021/12/16 12:08:00;;;;;;;4.37;3.50;;;;;;;7.57;77.57;97400.13;4953788;29;20256;-82
2021/12/16 12:10:40;;;;;;;5.80;3.90;;;;;;;7.61;77.28;97401.53;4951291;28;20224;-82
2021/12/16 12:13:07;;;;;;;4.80;4.30;;;;;;;7.57;75.90;97400.13;4954123;29;20197;-82
2021/12/16 12:15:51;;;;;;;4.23;3.83;;;;;;;7.59;76.79;97395.69;4952336;28;20211;-82
2021/12/16 12:18:32;;;;;;;6.50;4.47;;;;;;;7.63;76.37;97402.25;4954860;28;20204;-82
2021/12/16 12:21:17;;;;;;;4.40;4.00;;;;;;;7.62;76.90;97402.34;4953981;28;20217;-82
2021/12/16 12:23:44;;;;;;;4.50;4.10;;;;;;;7.58;76.91;97404.31;4952982;28;20616;-82
2021/12/16 12:26:14;;;;;;;4.40;3.90;;;;;;;7.61;76.50;97410.97;4959237;28;20232;-82
2021/12/16 12:28:40;;;;;;;4.17;3.77;;;;;;;7.66;76.33;97402.94;4957158;28;20205;-82
2021/12/16 12:31:08;;;;;;;4.27;3.87;;;;;;;7.63;75.44;97402.25;4971882;28;20204;-82
2021/12/16 12:33:35;;;;;;;4.20;3.80;;;;;;;7.53;76.53;97403.00;4955942;28;20216;-82
2021/12/16 12:36:01;;;;;;;4.10;3.70;;;;;;;7.56;76.13;97390.78;4957261;28;20232;-82
2021/12/16 12:38:28;;;;;;;4.87;4.30;;;;;;;7.56;76.08;97387.41;4958332;28;20764;-83
2021/12/16 12:40:56;;;;;;;4.63;4.17;;;;;;;7.54;75.47;97397.78;4958122;28;20193;-82
2021/12/16 12:43:23;;;;;;;4.13;3.73;;;;;;;7.60;75.37;97391.38;4956535;29;20260;-83
2021/12/16 12:45:50;;;;;;;5.10;3.70;;;;;;;7.55;74.92;97396.03;4955951;28;20256;-82
2021/12/16 12:48:20;;;;;;;3.80;3.50;;;;;;;7.57;75.81;97389.03;4957689;28;20212;-82
2021/12/16 12:50:50;;;;;;;4.47;4.07;;;;;;;7.57;75.25;97395.00;4956930;28;20224;-82
2021/12/16 12:53:20;;;;;;;4.77;3.90;;;;;;;7.59;75.77;97382.88;4957578;29;20196;-82
2021/12/16 12:55:49;;;;;;;5.20;3.93;;;;;;;7.60;75.46;97389.63;4960849;28;20233;-82
2021/12/16 12:58:19;;;;;;;65.77;47.27;;;;;;;7.56;76.31;97395.91;4958087;28;20209;-82
2021/12/16 13:00:48;;;;;;;29.27;22.63;;;;;;;7.62;76.24;97392.91;4957486;28;20217;-82
2021/12/16 13:03:19;;;;;;;12.67;10.60;;;;;;;7.69;75.93;97389.91;4955855;28;20205;-82
2021/12/16 13:05:51;;;;;;;6.57;5.63;;;;;;;7.73;75.92;97386.16;4956672;28;20236;-82
2021/12/16 13:08:26;;;;;;;5.50;4.20;;;;;;;7.68;74.19;97380.56;4953323;28;20319;-82
2021/12/16 13:10:58;;;;;;;4.10;3.63;;;;;;;7.70;73.99;97383.84;4944951;29;20208;-82
2021/12/16 13:13:33;;;;;;;3.70;3.40;;;;;;;7.76;74.35;97380.81;4957975;28;20260;-82
2021/12/16 13:25:26;;;;;;;3.63;3.33;;;;;;;7.50;74.88;97369.94;4954558;28;20852;-82
2021/12/16 13:28:01;;;;;;;3.90;3.60;;;;;;;7.51;74.94;97371.53;4958205;29;20708;-82
2021/12/16 13:30:32;;;;;;;3.97;3.50;;;;;;;7.54;75.78;97368.75;4972473;28;20778;-82
2021/12/16 13:33:19;;;;;;;3.63;3.33;;;;;;;7.58;75.47;97362.47;4957368;28;20208;-82
2021/12/16 13:35:59;;;;;;;4.27;3.43;;;;;;;7.62;75.55;97364.72;4942689;28;20239;-82
2021/12/16 13:38:37;;;;;;;5.93;3.43;;;;;;;7.64;75.64;97372.28;4956382;28;20232;-82
2021/12/16 13:41:12;;;;;;;4.07;3.63;;;;;;;7.63;75.53;97379.16;4956519;29;20215;-82